Panda — H8NH — position and weather

sailwx.info

Track history (hours):
 
Tides and Currents Weather Stations Pressure Air Temp Water Temp Dewpoint Dewpoint Depression Visibility Wind Speed Wind Dir Waves Ship Positions

Panda

Last reported at 2017-Apr-30 16:24 UTC. Time now 2017-Apr-30 22:27 UTC.
Position N 37°23' E 025°55'.

Length 171 m; draft 9.4 m.

Type: Cargo ship. MMSI: 352528000.

Date/timePositionNaut miles runAvg speedWind from/ knotsBaromVisibWave heightAir tempDewpointWater temp
2017-Apr-30 16:24N 37°23' E 025°55'4 9.5
2017-Apr-30 16:00N 37°26' E 025°53'4 9.0
2017-Apr-30 15:31N 37°30' E 025°50'5 9.0
2017-Apr-30 14:59N 37°35' E 025°49'4 9.3
2017-Apr-30 14:30N 37°39' E 025°48'141 9.4
2017-Apr-29 23:25N 40°00' E 025°58'6 9.6
2017-Apr-29 22:47N 40°01' E 026°06'310.6
2017-Apr-29 22:30N 40°02' E 026°10'138 6.7
2017-Apr-29 01:54N 40°58' E 028°56'0 0.3
2017-Apr-29 01:24N 40°58' E 028°56'0 0.2
2017-Apr-29 00:50N 40°58' E 028°56'2 5.7
2017-Apr-29 00:30N 40°59' E 028°59'244 5.0
2017-Apr-26 23:23N 44°53' E 030°34'89 8.5
2017-Apr-26 12:58N 46°20' E 030°55'5 9.0
2017-Apr-26 12:22N 46°25' E 030°55'4 9.0
2017-Apr-26 11:59N 46°29' E 030°55'4 7.7
2017-Apr-26 11:29N 46°33' E 030°57'29 8.3
2017-Apr-26 07:57N 46°36' E 031°39'4 8.2
2017-Apr-26 07:28N 46°36' E 031°45'4 7.8
2017-Apr-26 07:00N 46°36' E 031°50'4 7.8
2017-Apr-26 06:30N 46°38' E 031°55'4 7.9
2017-Apr-26 06:00N 46°42' E 031°56'4 7.1
2017-Apr-26 05:30N 46°45' E 031°54'4 7.2
2017-Apr-26 05:00N 46°49' E 031°55'3 6.3
2017-Apr-26 04:30N 46°51' E 031°58'1 1.3
2017-Apr-26 03:58N 46°51' E 031°59'0 0.0
2017-Apr-26 03:28N 46°51' E 031°59'0 0.0
2017-Apr-26 02:58N 46°51' E 031°59'0 0.0
2017-Apr-26 02:28N 46°51' E 031°59'0 0.0
2017-Apr-26 01:58N 46°51' E 031°59'0 0.0
2017-Apr-26 01:28N 46°51' E 031°59'0 0.0
2017-Apr-26 00:58N 46°51' E 031°59'0 0.0
2017-Apr-26 00:28N 46°51' E 031°59'0 0.0
2017-Apr-25 23:58N 46°51' E 031°59'0 0.0
2017-Apr-25 23:28N 46°51' E 031°59'0 0.0
2017-Apr-25 22:58N 46°51' E 031°59'0 0.0
2017-Apr-25 22:25N 46°51' E 031°59'0 0.0
2017-Apr-25 21:58N 46°51' E 031°59'0 0.0
2017-Apr-25 21:28N 46°51' E 031°59'0 0.0
2017-Apr-25 20:58N 46°51' E 031°59'0 0.0
2017-Apr-25 20:28N 46°51' E 031°59'0 0.0
2017-Apr-25 19:58N 46°51' E 031°59'0 0.0
2017-Apr-25 19:28N 46°51' E 031°59'0 0.0
2017-Apr-25 18:58N 46°51' E 031°59'0 0.0
2017-Apr-25 18:28N 46°51' E 031°59'0 0.0
2017-Apr-25 17:58N 46°51' E 031°59'0 0.0
2017-Apr-25 17:28N 46°51' E 031°59'0 0.0
2017-Apr-25 16:58N 46°51' E 031°59'0 0.0
2017-Apr-25 16:28N 46°51' E 031°59'0 0.0
2017-Apr-25 15:58N 46°51' E 031°59'0 0.0
2017-Apr-25 15:28N 46°51' E 031°59'0 0.0
2017-Apr-25 14:58N 46°51' E 031°59'0 0.0
2017-Apr-25 13:58N 46°51' E 031°59'0 0.0
2017-Apr-25 13:28N 46°51' E 031°59'0 0.0
2017-Apr-25 12:58N 46°51' E 031°59'0 0.0
2017-Apr-25 12:28N 46°51' E 031°59'0 0.0
2017-Apr-25 11:58N 46°51' E 031°59'0 0.0
2017-Apr-25 11:28N 46°51' E 031°59'0 0.0
2017-Apr-25 10:58N 46°51' E 031°59'0 0.0
2017-Apr-25 10:28N 46°51' E 031°59'0 0.0
2017-Apr-25 09:58N 46°51' E 031°59'0 0.0
2017-Apr-25 09:28N 46°51' E 031°59'0 0.0
2017-Apr-25 08:58N 46°51' E 031°59'0 0.0
2017-Apr-25 08:28N 46°51' E 031°59'0 0.0
2017-Apr-25 07:58N 46°51' E 031°59'0 0.0
2017-Apr-25 07:28N 46°51' E 031°59'0 0.0
2017-Apr-25 06:58N 46°51' E 031°59'0 0.0
2017-Apr-25 06:28N 46°51' E 031°59'0 0.0
2017-Apr-25 05:58N 46°51' E 031°59'0 0.0
2017-Apr-25 05:28N 46°51' E 031°59'0 0.0
2017-Apr-25 04:58N 46°51' E 031°59'0 0.0
2017-Apr-25 04:28N 46°51' E 031°59'0 0.0
2017-Apr-25 03:58N 46°51' E 031°59'0 0.0
2017-Apr-25 03:28N 46°51' E 031°59'0 0.0
2017-Apr-25 02:58N 46°51' E 031°59'0 0.0
2017-Apr-25 02:28N 46°51' E 031°59'0 0.0
2017-Apr-25 01:58N 46°51' E 031°59'0 0.0
2017-Apr-25 01:28N 46°51' E 031°59'0 0.0
2017-Apr-25 00:58N 46°51' E 031°59'0 0.0
2017-Apr-25 00:28N 46°51' E 031°59'0 0.0
2017-Apr-24 23:58N 46°51' E 031°59'0 0.0
2017-Apr-24 23:28N 46°51' E 031°59'0 0.0
2017-Apr-24 22:58N 46°51' E 031°59'0 0.0
2017-Apr-24 22:28N 46°51' E 031°59'0 0.0
2017-Apr-24 21:58N 46°51' E 031°59'0 0.0
2017-Apr-24 21:28N 46°51' E 031°59'0 0.0
2017-Apr-24 20:58N 46°51' E 031°59'0 0.0
2017-Apr-24 20:28N 46°51' E 031°59'0 0.0
2017-Apr-24 19:58N 46°51' E 031°59'0 0.0
2017-Apr-24 00:10N 46°51' E 031°59'0 0.0
2017-Apr-23 23:58N 46°51' E 031°59'0 0.1
2017-Apr-23 23:28N 46°51' E 031°59'0 0.0
2017-Apr-23 22:58N 46°51' E 031°59'0 0.0
2017-Apr-23 22:28N 46°51' E 031°59'0 0.0
2017-Apr-23 21:58N 46°51' E 031°59'0 0.0
2017-Apr-23 21:28N 46°51' E 031°59'0 0.0
2017-Apr-23 20:58N 46°51' E 031°59'0 0.0
2017-Apr-23 20:28N 46°51' E 031°59'0 0.0
2017-Apr-23 19:58N 46°51' E 031°59'0 0.0
2017-Apr-23 19:28N 46°51' E 031°59'0 0.0
2017-Apr-23 18:58N 46°51' E 031°59'0 0.0
2017-Apr-23 18:28N 46°51' E 031°59'0 0.0
2017-Apr-23 17:58N 46°51' E 031°59'0 0.0
2017-Apr-23 17:28N 46°51' E 031°59'0 0.0
2017-Apr-23 16:58N 46°51' E 031°59'0 0.0
2017-Apr-23 16:28N 46°51' E 031°59'0 0.0
2017-Apr-23 15:58N 46°51' E 031°59'0 0.0
2017-Apr-23 15:28N 46°51' E 031°59'0 0.0
2017-Apr-23 14:58N 46°51' E 031°59'0 0.0
2017-Apr-23 13:58N 46°51' E 031°59'0 0.0
2017-Apr-23 13:28N 46°51' E 031°59'0 0.0
2017-Apr-23 12:58N 46°51' E 031°59'0 0.0
2017-Apr-23 12:28N 46°51' E 031°59'0 0.0
2017-Apr-23 11:58N 46°51' E 031°59'0 0.0
2017-Apr-23 11:28N 46°51' E 031°59'0 0.0
2017-Apr-23 10:58N 46°51' E 031°59'0 0.0
2017-Apr-23 10:28N 46°51' E 031°59'0 0.0
2017-Apr-23 09:58N 46°51' E 031°59'0 0.0
2017-Apr-23 09:28N 46°51' E 031°59'0 0.0
2017-Apr-23 08:58N 46°51' E 031°59'0 0.0
2017-Apr-23 08:28N 46°51' E 031°59'0 0.0
2017-Apr-23 07:58N 46°51' E 031°59'0 0.0
2017-Apr-23 07:28N 46°51' E 031°59'0 0.0
2017-Apr-23 06:58N 46°51' E 031°59'0 0.0
2017-Apr-23 06:28N 46°51' E 031°59'0 0.0
2017-Apr-23 05:58N 46°51' E 031°59'0 0.0
2017-Apr-23 05:28N 46°51' E 031°59'0 0.0
2017-Apr-23 04:58N 46°51' E 031°59'0 0.0
2017-Apr-23 04:28N 46°51' E 031°59'0 0.0
2017-Apr-23 03:58N 46°51' E 031°59'0 0.0
2017-Apr-23 03:28N 46°51' E 031°59'0 0.0
2017-Apr-23 02:58N 46°51' E 031°59'0 0.0
2017-Apr-23 02:28N 46°51' E 031°59'0 0.0
2017-Apr-23 01:58N 46°51' E 031°59'0 0.0
2017-Apr-23 01:28N 46°51' E 031°59'0 0.0
2017-Apr-23 00:58N 46°51' E 031°59'0 0.0
2017-Apr-23 00:28N 46°51' E 031°59'0 0.0
2017-Apr-22 23:58N 46°51' E 031°59'0 0.0
2017-Apr-22 23:28N 46°51' E 031°59'0 0.0
2017-Apr-22 22:58N 46°51' E 031°59'0 0.0
2017-Apr-22 22:28N 46°51' E 031°59'0 0.0
2017-Apr-22 21:58N 46°51' E 031°59'0 0.0
2017-Apr-22 21:28N 46°51' E 031°59'0 0.0
2017-Apr-22 20:58N 46°51' E 031°59'0 0.0
2017-Apr-22 20:28N 46°51' E 031°59'0 0.0
2017-Apr-22 19:58N 46°51' E 031°59'0 0.0
2017-Apr-22 19:28N 46°51' E 031°59'0 0.0
2017-Apr-22 18:58N 46°51' E 031°59'0 0.0
2017-Apr-22 18:28N 46°51' E 031°59'0 0.0
2017-Apr-22 17:58N 46°51' E 031°59'0 0.0
2017-Apr-22 17:28N 46°51' E 031°59'0 0.0
2017-Apr-22 16:58N 46°51' E 031°59'0 0.0
2017-Apr-22 16:28N 46°51' E 031°59'0 0.0
2017-Apr-22 15:58N 46°51' E 031°59'0 0.0
2017-Apr-22 15:28N 46°51' E 031°59'0 0.0
2017-Apr-22 14:58N 46°51' E 031°59'0 0.0
2017-Apr-22 14:28N 46°51' E 031°59'0 0.0
2017-Apr-22 13:28N 46°51' E 031°59'0 0.0
2017-Apr-22 12:58N 46°51' E 031°59'0 0.0
2017-Apr-22 12:28N 46°51' E 031°59'0 0.0
2017-Apr-22 11:58N 46°51' E 031°59'0 0.0
2017-Apr-22 11:28N 46°51' E 031°59'0 0.0
2017-Apr-22 10:58N 46°51' E 031°59'0 0.0
2017-Apr-22 10:28N 46°51' E 031°59'0 0.0
2017-Apr-22 09:58N 46°51' E 031°59'0 0.0
2017-Apr-22 09:28N 46°51' E 031°59'0 0.0
2017-Apr-22 08:58N 46°51' E 031°59'0 0.0
2017-Apr-22 08:28N 46°51' E 031°59'0 0.0
2017-Apr-22 07:58N 46°51' E 031°59'0 0.0
2017-Apr-22 07:28N 46°51' E 031°59'0 0.0
2017-Apr-22 06:58N 46°51' E 031°59'0 0.0
2017-Apr-22 06:28N 46°51' E 031°59'0 0.0
2017-Apr-22 05:58N 46°51' E 031°59'0 0.0
2017-Apr-22 05:28N 46°51' E 031°59'0 0.0
2017-Apr-22 04:58N 46°51' E 031°59'0 0.0
2017-Apr-22 04:28N 46°51' E 031°59'0 0.0
2017-Apr-22 03:58N 46°51' E 031°59'0 0.0
2017-Apr-22 03:28N 46°51' E 031°59'0 0.0
2017-Apr-22 02:58N 46°51' E 031°59'0 0.0
2017-Apr-22 02:28N 46°51' E 031°59'0 0.0
2017-Apr-22 01:58N 46°51' E 031°59'0 0.0
2017-Apr-22 01:28N 46°51' E 031°59'0 0.0
2017-Apr-22 00:58N 46°51' E 031°59'0 0.0
2017-Apr-22 00:28N 46°51' E 031°59'0 0.2
2017-Apr-22 00:01N 46°51' E 031°59'0 0.7
2017-Apr-21 23:28N 46°52' E 031°58'0 0.0
2017-Apr-21 22:58N 46°52' E 031°58'0 0.0
2017-Apr-21 22:28N 46°52' E 031°58'0 0.1
2017-Apr-21 21:58N 46°52' E 031°58'0 0.0
2017-Apr-21 21:28N 46°51' E 031°58'0 0.1
2017-Apr-21 20:58N 46°51' E 031°58'0 0.0
2017-Apr-21 20:28N 46°51' E 031°58'0 0.0
2017-Apr-21 19:58N 46°51' E 031°58'0 0.0
2017-Apr-21 19:28N 46°51' E 031°58'0 0.0
2017-Apr-21 18:58N 46°51' E 031°58'0 0.1
2017-Apr-21 18:28N 46°51' E 031°58'0 0.0
2017-Apr-21 17:58N 46°51' E 031°58'0 0.0
2017-Apr-21 17:28N 46°51' E 031°58'0 0.0
2017-Apr-21 16:58N 46°51' E 031°58'0 0.0
2017-Apr-21 16:28N 46°51' E 031°58'0 0.0
2017-Apr-21 15:58N 46°51' E 031°58'0 0.0
2017-Apr-21 15:28N 46°51' E 031°58'0 0.0
2017-Apr-21 14:58N 46°51' E 031°58'0 0.0
2017-Apr-21 14:28N 46°51' E 031°58'0 0.0
2017-Apr-21 13:28N 46°51' E 031°58'0 0.0
2017-Apr-21 12:58N 46°51' E 031°58'0 0.0
2017-Apr-21 12:28N 46°51' E 031°58'0 0.1
2017-Apr-21 11:58N 46°52' E 031°58'0 0.1
2017-Apr-21 11:28N 46°52' E 031°58'0 0.0
2017-Apr-21 10:58N 46°52' E 031°58'0 0.0
2017-Apr-21 10:28N 46°52' E 031°58'0 0.0
2017-Apr-21 09:58N 46°52' E 031°58'0 0.0
2017-Apr-21 09:28N 46°52' E 031°58'0 0.0
2017-Apr-21 08:58N 46°52' E 031°58'0 0.1
2017-Apr-21 08:28N 46°52' E 031°58'0 0.0
2017-Apr-21 07:46N 46°52' E 031°58'0 0.0
2017-Apr-21 07:28N 46°52' E 031°58'0 0.0
2017-Apr-21 06:58N 46°52' E 031°58'0 0.0
2017-Apr-21 06:28N 46°52' E 031°58'0 0.0
2017-Apr-21 05:58N 46°52' E 031°58'0 0.1
2017-Apr-21 05:28N 46°52' E 031°58'0 0.0
2017-Apr-21 04:58N 46°52' E 031°58'0 0.0
2017-Apr-21 04:28N 46°52' E 031°58'0 0.1
2017-Apr-21 03:58N 46°52' E 031°58'0 0.1
2017-Apr-21 03:28N 46°52' E 031°58'0 0.3
2017-Apr-21 02:58N 46°52' E 031°58'0 0.1
2017-Apr-21 02:28N 46°52' E 031°58'0 0.0
2017-Apr-21 01:58N 46°52' E 031°58'0 0.0
2017-Apr-21 01:28N 46°52' E 031°58'0 0.0
2017-Apr-21 00:58N 46°52' E 031°58'0 0.0
2017-Apr-21 00:28N 46°52' E 031°58'0 0.0
2017-Apr-20 23:58N 46°52' E 031°58'0 0.0
2017-Apr-20 23:28N 46°52' E 031°58'0 0.1
2017-Apr-20 22:58N 46°51' E 031°58'0 0.0
2017-Apr-20 22:28N 46°52' E 031°58'0 0.0
2017-Apr-20 21:58N 46°52' E 031°58'0 0.0
2017-Apr-20 21:28N 46°52' E 031°58'0 0.0
2017-Apr-20 20:58N 46°52' E 031°58'0 0.0
2017-Apr-20 20:28N 46°52' E 031°58'0 0.0
2017-Apr-20 19:58N 46°51' E 031°58'0 0.0
2017-Apr-20 19:28N 46°52' E 031°58'0 0.0
2017-Apr-20 18:58N 46°51' E 031°58'0 0.0
2017-Apr-20 18:28N 46°51' E 031°58'0 0.0
2017-Apr-20 17:58N 46°51' E 031°58'0 0.0
2017-Apr-20 17:28N 46°51' E 031°58'0 0.0
2017-Apr-20 16:58N 46°51' E 031°58'0 0.0
2017-Apr-20 16:28N 46°51' E 031°58'  
Track history (hours):
 
Tides and Currents Weather Stations Pressure Air Temp Water Temp Dewpoint Dewpoint Depression Visibility Wind Speed Wind Dir Waves Ship Positions

Panda

Last reported at 2017-Apr-30 16:24 UTC. Time now 2017-Apr-30 22:27 UTC.
Position N 37°23' E 025°55'.

Length 171 m; draft 9.4 m.

Type: Cargo ship. MMSI: 352528000.

Date/timePositionNaut miles runAvg speedWind from/ knotsBaromVisibWave heightAir tempDewpointWater temp
2017-Apr-30 16:24N 37°23' E 025°55'4 9.5
2017-Apr-30 16:00N 37°26' E 025°53'4 9.0
2017-Apr-30 15:31N 37°30' E 025°50'5 9.0
2017-Apr-30 14:59N 37°35' E 025°49'4 9.3
2017-Apr-30 14:30N 37°39' E 025°48'141 9.4
2017-Apr-29 23:25N 40°00' E 025°58'6 9.6
2017-Apr-29 22:47N 40°01' E 026°06'310.6
2017-Apr-29 22:30N 40°02' E 026°10'138 6.7
2017-Apr-29 01:54N 40°58' E 028°56'0 0.3
2017-Apr-29 01:24N 40°58' E 028°56'0 0.2
2017-Apr-29 00:50N 40°58' E 028°56'2 5.7
2017-Apr-29 00:30N 40°59' E 028°59'244 5.0
2017-Apr-26 23:23N 44°53' E 030°34'89 8.5
2017-Apr-26 12:58N 46°20' E 030°55'5 9.0
2017-Apr-26 12:22N 46°25' E 030°55'4 9.0
2017-Apr-26 11:59N 46°29' E 030°55'4 7.7
2017-Apr-26 11:29N 46°33' E 030°57'29 8.3
2017-Apr-26 07:57N 46°36' E 031°39'4 8.2
2017-Apr-26 07:28N 46°36' E 031°45'4 7.8
2017-Apr-26 07:00N 46°36' E 031°50'4 7.8
2017-Apr-26 06:30N 46°38' E 031°55'4 7.9
2017-Apr-26 06:00N 46°42' E 031°56'4 7.1
2017-Apr-26 05:30N 46°45' E 031°54'4 7.2
2017-Apr-26 05:00N 46°49' E 031°55'3 6.3
2017-Apr-26 04:30N 46°51' E 031°58'1 1.3
2017-Apr-26 03:58N 46°51' E 031°59'0 0.0
2017-Apr-26 03:28N 46°51' E 031°59'0 0.0
2017-Apr-26 02:58N 46°51' E 031°59'0 0.0
2017-Apr-26 02:28N 46°51' E 031°59'0 0.0
2017-Apr-26 01:58N 46°51' E 031°59'0 0.0
2017-Apr-26 01:28N 46°51' E 031°59'0 0.0
2017-Apr-26 00:58N 46°51' E 031°59'0 0.0
2017-Apr-26 00:28N 46°51' E 031°59'0 0.0
2017-Apr-25 23:58N 46°51' E 031°59'0 0.0
2017-Apr-25 23:28N 46°51' E 031°59'0 0.0
2017-Apr-25 22:58N 46°51' E 031°59'0 0.0
2017-Apr-25 22:25N 46°51' E 031°59'0 0.0
2017-Apr-25 21:58N 46°51' E 031°59'0 0.0
2017-Apr-25 21:28N 46°51' E 031°59'0 0.0
2017-Apr-25 20:58N 46°51' E 031°59'0 0.0
2017-Apr-25 20:28N 46°51' E 031°59'0 0.0
2017-Apr-25 19:58N 46°51' E 031°59'0 0.0
2017-Apr-25 19:28N 46°51' E 031°59'0 0.0
2017-Apr-25 18:58N 46°51' E 031°59'0 0.0
2017-Apr-25 18:28N 46°51' E 031°59'0 0.0
2017-Apr-25 17:58N 46°51' E 031°59'0 0.0
2017-Apr-25 17:28N 46°51' E 031°59'0 0.0
2017-Apr-25 16:58N 46°51' E 031°59'0 0.0
2017-Apr-25 16:28N 46°51' E 031°59'0 0.0
2017-Apr-25 15:58N 46°51' E 031°59'0 0.0
2017-Apr-25 15:28N 46°51' E 031°59'0 0.0
2017-Apr-25 14:58N 46°51' E 031°59'0 0.0
2017-Apr-25 13:58N 46°51' E 031°59'0 0.0
2017-Apr-25 13:28N 46°51' E 031°59'0 0.0
2017-Apr-25 12:58N 46°51' E 031°59'0 0.0
2017-Apr-25 12:28N 46°51' E 031°59'0 0.0
2017-Apr-25 11:58N 46°51' E 031°59'0 0.0
2017-Apr-25 11:28N 46°51' E 031°59'0 0.0
2017-Apr-25 10:58N 46°51' E 031°59'0 0.0
2017-Apr-25 10:28N 46°51' E 031°59'0 0.0
2017-Apr-25 09:58N 46°51' E 031°59'0 0.0
2017-Apr-25 09:28N 46°51' E 031°59'0 0.0
2017-Apr-25 08:58N 46°51' E 031°59'0 0.0
2017-Apr-25 08:28N 46°51' E 031°59'0 0.0
2017-Apr-25 07:58N 46°51' E 031°59'0 0.0
2017-Apr-25 07:28N 46°51' E 031°59'0 0.0
2017-Apr-25 06:58N 46°51' E 031°59'0 0.0
2017-Apr-25 06:28N 46°51' E 031°59'0 0.0
2017-Apr-25 05:58N 46°51' E 031°59'0 0.0
2017-Apr-25 05:28N 46°51' E 031°59'0 0.0
2017-Apr-25 04:58N 46°51' E 031°59'0 0.0
2017-Apr-25 04:28N 46°51' E 031°59'0 0.0
2017-Apr-25 03:58N 46°51' E 031°59'0 0.0
2017-Apr-25 03:28N 46°51' E 031°59'0 0.0
2017-Apr-25 02:58N 46°51' E 031°59'0 0.0
2017-Apr-25 02:28N 46°51' E 031°59'0 0.0
2017-Apr-25 01:58N 46°51' E 031°59'0 0.0
2017-Apr-25 01:28N 46°51' E 031°59'0 0.0
2017-Apr-25 00:58N 46°51' E 031°59'0 0.0
2017-Apr-25 00:28N 46°51' E 031°59'0 0.0
2017-Apr-24 23:58N 46°51' E 031°59'0 0.0
2017-Apr-24 23:28N 46°51' E 031°59'0 0.0
2017-Apr-24 22:58N 46°51' E 031°59'0 0.0
2017-Apr-24 22:28N 46°51' E 031°59'0 0.0
2017-Apr-24 21:58N 46°51' E 031°59'0 0.0
2017-Apr-24 21:28N 46°51' E 031°59'0 0.0
2017-Apr-24 20:58N 46°51' E 031°59'0 0.0
2017-Apr-24 20:28N 46°51' E 031°59'0 0.0
2017-Apr-24 19:58N 46°51' E 031°59'0 0.0
2017-Apr-24 00:10N 46°51' E 031°59'0 0.0
2017-Apr-23 23:58N 46°51' E 031°59'0 0.1
2017-Apr-23 23:28N 46°51' E 031°59'0 0.0
2017-Apr-23 22:58N 46°51' E 031°59'0 0.0
2017-Apr-23 22:28N 46°51' E 031°59'0 0.0
2017-Apr-23 21:58N 46°51' E 031°59'0 0.0
2017-Apr-23 21:28N 46°51' E 031°59'0 0.0
2017-Apr-23 20:58N 46°51' E 031°59'0 0.0
2017-Apr-23 20:28N 46°51' E 031°59'0 0.0
2017-Apr-23 19:58N 46°51' E 031°59'0 0.0
2017-Apr-23 19:28N 46°51' E 031°59'0 0.0
2017-Apr-23 18:58N 46°51' E 031°59'0 0.0
2017-Apr-23 18:28N 46°51' E 031°59'0 0.0
2017-Apr-23 17:58N 46°51' E 031°59'0 0.0
2017-Apr-23 17:28N 46°51' E 031°59'0 0.0
2017-Apr-23 16:58N 46°51' E 031°59'0 0.0
2017-Apr-23 16:28N 46°51' E 031°59'0 0.0
2017-Apr-23 15:58N 46°51' E 031°59'0 0.0
2017-Apr-23 15:28N 46°51' E 031°59'0 0.0
2017-Apr-23 14:58N 46°51' E 031°59'0 0.0
2017-Apr-23 13:58N 46°51' E 031°59'0 0.0
2017-Apr-23 13:28N 46°51' E 031°59'0 0.0
2017-Apr-23 12:58N 46°51' E 031°59'0 0.0
2017-Apr-23 12:28N 46°51' E 031°59'0 0.0
2017-Apr-23 11:58N 46°51' E 031°59'0 0.0
2017-Apr-23 11:28N 46°51' E 031°59'0 0.0
2017-Apr-23 10:58N 46°51' E 031°59'0 0.0
2017-Apr-23 10:28N 46°51' E 031°59'0 0.0
2017-Apr-23 09:58N 46°51' E 031°59'0 0.0
2017-Apr-23 09:28N 46°51' E 031°59'0 0.0
2017-Apr-23 08:58N 46°51' E 031°59'0 0.0
2017-Apr-23 08:28N 46°51' E 031°59'0 0.0
2017-Apr-23 07:58N 46°51' E 031°59'0 0.0
2017-Apr-23 07:28N 46°51' E 031°59'0 0.0
2017-Apr-23 06:58N 46°51' E 031°59'0 0.0
2017-Apr-23 06:28N 46°51' E 031°59'0 0.0
2017-Apr-23 05:58N 46°51' E 031°59'0 0.0
2017-Apr-23 05:28N 46°51' E 031°59'0 0.0
2017-Apr-23 04:58N 46°51' E 031°59'0 0.0
2017-Apr-23 04:28N 46°51' E 031°59'0 0.0
2017-Apr-23 03:58N 46°51' E 031°59'0 0.0
2017-Apr-23 03:28N 46°51' E 031°59'0 0.0
2017-Apr-23 02:58N 46°51' E 031°59'0 0.0
2017-Apr-23 02:28N 46°51' E 031°59'0 0.0
2017-Apr-23 01:58N 46°51' E 031°59'0 0.0
2017-Apr-23 01:28N 46°51' E 031°59'0 0.0
2017-Apr-23 00:58N 46°51' E 031°59'0 0.0
2017-Apr-23 00:28N 46°51' E 031°59'0 0.0
2017-Apr-22 23:58N 46°51' E 031°59'0 0.0
2017-Apr-22 23:28N 46°51' E 031°59'0 0.0
2017-Apr-22 22:58N 46°51' E 031°59'0 0.0
2017-Apr-22 22:28N 46°51' E 031°59'0 0.0
2017-Apr-22 21:58N 46°51' E 031°59'0 0.0
2017-Apr-22 21:28N 46°51' E 031°59'0 0.0
2017-Apr-22 20:58N 46°51' E 031°59'0 0.0
2017-Apr-22 20:28N 46°51' E 031°59'0 0.0
2017-Apr-22 19:58N 46°51' E 031°59'0 0.0
2017-Apr-22 19:28N 46°51' E 031°59'0 0.0
2017-Apr-22 18:58N 46°51' E 031°59'0 0.0
2017-Apr-22 18:28N 46°51' E 031°59'0 0.0
2017-Apr-22 17:58N 46°51' E 031°59'0 0.0
2017-Apr-22 17:28N 46°51' E 031°59'0 0.0
2017-Apr-22 16:58N 46°51' E 031°59'0 0.0
2017-Apr-22 16:28N 46°51' E 031°59'0 0.0
2017-Apr-22 15:58N 46°51' E 031°59'0 0.0
2017-Apr-22 15:28N 46°51' E 031°59'0 0.0
2017-Apr-22 14:58N 46°51' E 031°59'0 0.0
2017-Apr-22 14:28N 46°51' E 031°59'0 0.0
2017-Apr-22 13:28N 46°51' E 031°59'0 0.0
2017-Apr-22 12:58N 46°51' E 031°59'0 0.0
2017-Apr-22 12:28N 46°51' E 031°59'0 0.0
2017-Apr-22 11:58N 46°51' E 031°59'0 0.0
2017-Apr-22 11:28N 46°51' E 031°59'0 0.0
2017-Apr-22 10:58N 46°51' E 031°59'0 0.0
2017-Apr-22 10:28N 46°51' E 031°59'0 0.0
2017-Apr-22 09:58N 46°51' E 031°59'0 0.0
2017-Apr-22 09:28N 46°51' E 031°59'0 0.0
2017-Apr-22 08:58N 46°51' E 031°59'0 0.0
2017-Apr-22 08:28N 46°51' E 031°59'0 0.0
2017-Apr-22 07:58N 46°51' E 031°59'0 0.0
2017-Apr-22 07:28N 46°51' E 031°59'0 0.0
2017-Apr-22 06:58N 46°51' E 031°59'0 0.0
2017-Apr-22 06:28N 46°51' E 031°59'0 0.0
2017-Apr-22 05:58N 46°51' E 031°59'0 0.0
2017-Apr-22 05:28N 46°51' E 031°59'0 0.0
2017-Apr-22 04:58N 46°51' E 031°59'0 0.0
2017-Apr-22 04:28N 46°51' E 031°59'0 0.0
2017-Apr-22 03:58N 46°51' E 031°59'0 0.0
2017-Apr-22 03:28N 46°51' E 031°59'0 0.0
2017-Apr-22 02:58N 46°51' E 031°59'0 0.0
2017-Apr-22 02:28N 46°51' E 031°59'0 0.0
2017-Apr-22 01:58N 46°51' E 031°59'0 0.0
2017-Apr-22 01:28N 46°51' E 031°59'0 0.0
2017-Apr-22 00:58N 46°51' E 031°59'0 0.0
2017-Apr-22 00:28N 46°51' E 031°59'0 0.2
2017-Apr-22 00:01N 46°51' E 031°59'0 0.7
2017-Apr-21 23:28N 46°52' E 031°58'0 0.0
2017-Apr-21 22:58N 46°52' E 031°58'0 0.0
2017-Apr-21 22:28N 46°52' E 031°58'0 0.1
2017-Apr-21 21:58N 46°52' E 031°58'0 0.0
2017-Apr-21 21:28N 46°51' E 031°58'0 0.1
2017-Apr-21 20:58N 46°51' E 031°58'0 0.0
2017-Apr-21 20:28N 46°51' E 031°58'0 0.0
2017-Apr-21 19:58N 46°51' E 031°58'0 0.0
2017-Apr-21 19:28N 46°51' E 031°58'0 0.0
2017-Apr-21 18:58N 46°51' E 031°58'0 0.1
2017-Apr-21 18:28N 46°51' E 031°58'0 0.0
2017-Apr-21 17:58N 46°51' E 031°58'0 0.0
2017-Apr-21 17:28N 46°51' E 031°58'0 0.0
2017-Apr-21 16:58N 46°51' E 031°58'0 0.0
2017-Apr-21 16:28N 46°51' E 031°58'0 0.0
2017-Apr-21 15:58N 46°51' E 031°58'0 0.0
2017-Apr-21 15:28N 46°51' E 031°58'0 0.0
2017-Apr-21 14:58N 46°51' E 031°58'0 0.0
2017-Apr-21 14:28N 46°51' E 031°58'0 0.0
2017-Apr-21 13:28N 46°51' E 031°58'0 0.0
2017-Apr-21 12:58N 46°51' E 031°58'0 0.0
2017-Apr-21 12:28N 46°51' E 031°58'0 0.1
2017-Apr-21 11:58N 46°52' E 031°58'0 0.1
2017-Apr-21 11:28N 46°52' E 031°58'0 0.0
2017-Apr-21 10:58N 46°52' E 031°58'0 0.0
2017-Apr-21 10:28N 46°52' E 031°58'0 0.0
2017-Apr-21 09:58N 46°52' E 031°58'0 0.0
2017-Apr-21 09:28N 46°52' E 031°58'0 0.0
2017-Apr-21 08:58N 46°52' E 031°58'0 0.1
2017-Apr-21 08:28N 46°52' E 031°58'0 0.0
2017-Apr-21 07:46N 46°52' E 031°58'0 0.0
2017-Apr-21 07:28N 46°52' E 031°58'0 0.0
2017-Apr-21 06:58N 46°52' E 031°58'0 0.0
2017-Apr-21 06:28N 46°52' E 031°58'0 0.0
2017-Apr-21 05:58N 46°52' E 031°58'0 0.1
2017-Apr-21 05:28N 46°52' E 031°58'0 0.0
2017-Apr-21 04:58N 46°52' E 031°58'0 0.0
2017-Apr-21 04:28N 46°52' E 031°58'0 0.1
2017-Apr-21 03:58N 46°52' E 031°58'0 0.1
2017-Apr-21 03:28N 46°52' E 031°58'0 0.3
2017-Apr-21 02:58N 46°52' E 031°58'0 0.1
2017-Apr-21 02:28N 46°52' E 031°58'0 0.0
2017-Apr-21 01:58N 46°52' E 031°58'0 0.0
2017-Apr-21 01:28N 46°52' E 031°58'0 0.0
2017-Apr-21 00:58N 46°52' E 031°58'0 0.0
2017-Apr-21 00:28N 46°52' E 031°58'0 0.0
2017-Apr-20 23:58N 46°52' E 031°58'0 0.0
2017-Apr-20 23:28N 46°52' E 031°58'0 0.1
2017-Apr-20 22:58N 46°51' E 031°58'0 0.0
2017-Apr-20 22:28N 46°52' E 031°58'0 0.0
2017-Apr-20 21:58N 46°52' E 031°58'0 0.0
2017-Apr-20 21:28N 46°52' E 031°58'0 0.0
2017-Apr-20 20:58N 46°52' E 031°58'0 0.0
2017-Apr-20 20:28N 46°52' E 031°58'0 0.0
2017-Apr-20 19:58N 46°51' E 031°58'0 0.0
2017-Apr-20 19:28N 46°52' E 031°58'0 0.0
2017-Apr-20 18:58N 46°51' E 031°58'0 0.0
2017-Apr-20 18:28N 46°51' E 031°58'0 0.0
2017-Apr-20 17:58N 46°51' E 031°58'0 0.0
2017-Apr-20 17:28N 46°51' E 031°58'0 0.0
2017-Apr-20 16:58N 46°51' E 031°58'0 0.0
2017-Apr-20 16:28N 46°51' E 031°58'  

Dump ship's entire track history